createdAt,value
2019-01-08T00:00:22.362Z,20.85
2019-01-08T00:02:48.731Z,20.80
2019-01-08T00:05:15.084Z,19.20
2019-01-08T00:07:41.373Z,20.75
2019-01-08T00:10:27.496Z,21.07
2019-01-08T00:12:53.780Z,22.07
2019-01-08T00:15:20.056Z,19.62
2019-01-08T00:17:46.304Z,18.05
2019-01-08T00:20:12.597Z,18.67
2019-01-08T00:22:38.876Z,20.55
2019-01-08T00:25:05.354Z,21.20
2019-01-08T00:27:31.645Z,20.90
2019-01-08T00:29:58.003Z,17.32
2019-01-08T00:32:24.267Z,18.25
2019-01-08T00:34:50.562Z,20.82
2019-01-08T00:37:16.952Z,19.52
2019-01-08T00:39:43.230Z,19.92
2019-01-08T00:42:09.509Z,20.25
2019-01-08T00:44:35.784Z,19.25
2019-01-08T00:47:02.093Z,18.40
2019-01-08T00:49:28.350Z,18.87
2019-01-08T00:51:54.601Z,20.30
2019-01-08T00:54:21.025Z,19.23
2019-01-08T00:56:47.304Z,16.62
2019-01-08T00:59:13.589Z,18.65
2019-01-08T01:01:39.849Z,22.42
2019-01-08T01:04:06.236Z,18.85
2019-01-08T01:06:32.593Z,20.25
2019-01-08T01:08:58.904Z,19.40
2019-01-08T01:11:25.280Z,20.17
2019-01-08T01:13:51.660Z,19.85
2019-01-08T01:16:18.088Z,16.97
2019-01-08T01:18:44.356Z,18.30
2019-01-08T01:21:10.645Z,21.15
2019-01-08T01:23:37.048Z,19.35
2019-01-08T01:26:03.553Z,24.32
2019-01-08T01:28:29.843Z,20.23
2019-01-08T01:30:56.127Z,19.98
2019-01-08T01:33:22.410Z,20.48
2019-01-08T01:35:48.682Z,23.18
2019-01-08T01:38:15.058Z,26.02
2019-01-08T01:40:41.478Z,22.60
2019-01-08T01:43:07.861Z,21.55
2019-01-08T01:45:34.164Z,24.32
2019-01-08T01:48:00.559Z,25.68
2019-01-08T01:50:26.960Z,22.65
2019-01-08T01:52:53.205Z,22.15
2019-01-08T01:55:19.519Z,21.25
2019-01-08T01:57:45.776Z,24.72
2019-01-08T02:00:12.179Z,25.32
2019-01-08T02:02:38.473Z,19.15
2019-01-08T02:05:04.956Z,20.60
2019-01-08T02:07:31.185Z,20.40
2019-01-08T02:09:57.572Z,18.00
2019-01-08T02:12:23.850Z,20.72
2019-01-08T02:14:50.167Z,18.55
2019-01-08T02:17:16.444Z,16.15
2019-01-08T02:19:42.759Z,21.30
2019-01-08T02:22:09.126Z,21.27
2019-01-08T02:24:35.418Z,21.12
2019-01-08T02:27:01.779Z,19.05
2019-01-08T02:29:28.176Z,23.07
2019-01-08T02:31:54.593Z,21.85
2019-01-08T02:34:20.879Z,20.85
2019-01-08T02:36:47.238Z,20.55
2019-01-08T02:39:13.667Z,19.80
2019-01-08T02:41:39.990Z,20.77
2019-01-08T02:44:06.520Z,18.65
2019-01-08T02:46:33.052Z,18.73
2019-01-08T02:48:59.340Z,20.00
2019-01-08T02:51:25.793Z,20.55
2019-01-08T02:53:52.091Z,19.75
2019-01-08T02:56:18.338Z,26.07
2019-01-08T02:58:44.625Z,20.15
2019-01-08T03:01:11.142Z,20.97
2019-01-08T03:03:37.399Z,21.60
2019-01-08T03:06:03.674Z,21.62
2019-01-08T03:08:30.081Z,20.35
2019-01-08T03:10:56.464Z,19.82
2019-01-08T03:13:22.756Z,23.35
2019-01-08T03:15:49.038Z,21.33
2019-01-08T03:18:15.451Z,19.15
2019-01-08T03:20:41.714Z,21.95
2019-01-08T03:23:08.024Z,21.10
2019-01-08T03:25:34.263Z,19.60
2019-01-08T03:28:00.533Z,20.37
2019-01-08T03:30:26.839Z,16.42
2019-01-08T03:32:53.255Z,19.00
2019-01-08T03:35:19.644Z,17.82
2019-01-08T03:37:46.124Z,16.62
2019-01-08T03:40:12.496Z,17.67
2019-01-08T03:42:38.782Z,15.60
2019-01-08T03:45:05.172Z,17.15
2019-01-08T03:47:31.425Z,19.98
2019-01-08T03:49:57.682Z,16.23
2019-01-08T03:52:24.022Z,15.30
2019-01-08T03:54:50.323Z,15.83
2019-01-08T03:57:16.680Z,12.73
2019-01-08T03:59:42.981Z,14.25
2019-01-08T04:02:09.353Z,14.70
2019-01-08T04:04:35.704Z,12.90
2019-01-08T04:07:02.184Z,12.15
2019-01-08T04:09:28.452Z,13.83
2019-01-08T04:11:54.840Z,13.88
2019-01-08T04:14:21.092Z,15.32
2019-01-08T04:16:47.360Z,15.85
2019-01-08T04:19:13.766Z,16.10
2019-01-08T04:21:40.125Z,12.37
2019-01-08T04:24:06.421Z,12.35
2019-01-08T04:26:32.676Z,13.18
2019-01-08T04:28:58.965Z,14.98
2019-01-08T04:31:25.278Z,13.28
2019-01-08T04:33:51.515Z,13.08
2019-01-08T04:36:17.804Z,13.25
2019-01-08T04:38:44.070Z,13.38
2019-01-08T04:41:10.316Z,14.13
2019-01-08T04:43:36.600Z,11.60
2019-01-08T04:46:02.891Z,12.75
2019-01-08T04:48:29.181Z,11.10
2019-01-08T04:50:55.569Z,9.83
2019-01-08T04:53:21.859Z,9.60
2019-01-08T04:55:48.137Z,8.58
2019-01-08T04:58:14.501Z,10.70
2019-01-08T05:00:40.813Z,11.10
2019-01-08T05:03:07.184Z,10.15
2019-01-08T05:05:33.435Z,10.70
2019-01-08T05:07:59.711Z,13.30
2019-01-08T05:10:25.970Z,11.93
2019-01-08T05:12:52.253Z,11.75
2019-01-08T05:15:18.510Z,12.65
2019-01-08T05:17:44.787Z,11.00
2019-01-08T05:20:11.051Z,12.07
2019-01-08T05:22:37.314Z,10.40
2019-01-08T05:25:04.005Z,13.25
2019-01-08T05:27:30.255Z,13.53
2019-01-08T05:29:56.549Z,11.65
2019-01-08T05:32:22.801Z,12.88
2019-01-08T05:34:49.044Z,10.20
2019-01-08T05:37:15.330Z,15.75
2019-01-08T05:39:41.584Z,14.68
2019-01-08T05:42:07.849Z,14.50
2019-01-08T05:44:34.170Z,11.80
2019-01-08T05:47:00.428Z,14.93
2019-01-08T05:49:26.706Z,13.22
2019-01-08T05:51:52.992Z,14.45
2019-01-08T05:54:19.289Z,11.12
2019-01-08T05:56:45.540Z,10.95
2019-01-08T05:59:11.829Z,12.60
2019-01-08T06:01:38.100Z,9.70
2019-01-08T06:04:04.366Z,10.40
2019-01-08T06:06:30.765Z,10.65
2019-01-08T06:08:57.022Z,9.93
2019-01-08T06:11:23.273Z,11.65
2019-01-08T06:13:49.663Z,9.58
2019-01-08T06:16:15.917Z,11.55
2019-01-08T06:18:42.207Z,10.65
2019-01-08T06:21:08.469Z,13.10
2019-01-08T06:23:34.728Z,13.10
2019-01-08T06:26:01.099Z,13.10
2019-01-08T06:28:27.365Z,12.98
2019-01-08T06:30:53.613Z,15.60
2019-01-08T06:33:19.896Z,15.45
2019-01-08T06:35:46.154Z,16.60
2019-01-08T06:38:12.411Z,14.25
2019-01-08T06:40:38.685Z,13.70
2019-01-08T06:43:04.954Z,15.10
2019-01-08T06:45:31.232Z,13.85
2019-01-08T06:47:57.488Z,13.18
2019-01-08T06:50:23.748Z,14.85
2019-01-08T06:52:50.028Z,13.75
2019-01-08T06:55:16.325Z,14.87
2019-01-08T06:57:42.581Z,17.32
2019-01-08T07:00:09.476Z,10.63
2019-01-08T07:02:35.828Z,13.58
2019-01-08T07:05:02.420Z,14.83
2019-01-08T07:07:28.684Z,14.28
2019-01-08T07:09:54.948Z,13.28
2019-01-08T07:12:21.227Z,11.93
2019-01-08T07:14:47.492Z,8.78
2019-01-08T07:17:13.751Z,12.55
2019-01-08T07:19:40.033Z,15.15
2019-01-08T07:22:06.306Z,16.23
2019-01-08T07:24:32.568Z,21.50
2019-01-08T07:26:58.849Z,13.68
2019-01-08T07:29:25.105Z,13.58
2019-01-08T07:31:51.362Z,13.78
2019-01-08T07:34:17.656Z,13.32
2019-01-08T07:36:43.895Z,13.80
2019-01-08T07:39:10.193Z,18.70
2019-01-08T07:41:36.455Z,16.05
2019-01-08T07:44:02.903Z,15.85
2019-01-08T07:46:29.201Z,13.03
2019-01-08T07:48:55.448Z,22.50
2019-01-08T07:51:21.732Z,22.95
2019-01-08T07:53:48.009Z,18.20
2019-01-08T07:56:14.396Z,9.50
2019-01-08T07:58:40.678Z,12.55
2019-01-08T08:01:06.938Z,14.95
2019-01-08T08:03:33.215Z,11.75
2019-01-08T08:05:59.461Z,12.50
2019-01-08T08:08:25.748Z,14.90
2019-01-08T08:10:52.030Z,11.97
2019-01-08T08:13:18.287Z,14.85
2019-01-08T08:15:44.634Z,13.08
2019-01-08T08:18:10.917Z,16.77
2019-01-08T08:20:37.160Z,18.40
2019-01-08T08:23:03.420Z,21.68
2019-01-08T08:25:29.708Z,27.07
2019-01-08T08:27:55.969Z,17.50
2019-01-08T08:30:22.348Z,14.75
2019-01-08T08:32:48.618Z,10.75
2019-01-08T08:35:14.969Z,11.20
2019-01-08T08:37:41.273Z,10.45
2019-01-08T08:40:07.653Z,12.58
2019-01-08T08:42:33.922Z,9.80
2019-01-08T08:45:00.311Z,13.05
2019-01-08T08:47:26.536Z,7.83
2019-01-08T08:49:52.815Z,6.00
2019-01-08T08:52:19.081Z,4.78
2019-01-08T08:54:45.362Z,3.05
2019-01-08T08:57:11.652Z,3.77
2019-01-08T08:59:37.939Z,3.30
2019-01-08T09:02:04.200Z,3.70
2019-01-08T09:04:30.505Z,3.70
2019-01-08T09:06:56.760Z,3.05
2019-01-08T09:09:23.024Z,2.90
2019-01-08T09:11:49.407Z,3.15
2019-01-08T09:14:15.664Z,3.65
2019-01-08T09:16:42.098Z,3.20
2019-01-08T09:19:08.381Z,3.37
2019-01-08T09:21:34.774Z,3.45
2019-01-08T09:24:01.033Z,3.27
2019-01-08T09:26:27.388Z,3.58
2019-01-08T09:28:53.679Z,4.70
2019-01-08T09:31:19.933Z,3.75
2019-01-08T09:33:46.325Z,3.08
2019-01-08T09:36:12.608Z,3.37
2019-01-08T09:38:38.866Z,4.05
2019-01-08T09:41:05.228Z,4.20
2019-01-08T09:43:31.608Z,3.22
2019-01-08T09:45:57.965Z,4.33
2019-01-08T09:48:24.212Z,3.40
2019-01-08T09:50:50.514Z,3.77
2019-01-08T09:53:16.770Z,3.33
2019-01-08T09:55:43.048Z,3.33
2019-01-08T09:58:09.335Z,3.83
2019-01-08T10:00:35.596Z,3.27
2019-01-08T10:03:01.874Z,3.55
2019-01-08T10:05:28.127Z,3.67
2019-01-08T10:07:54.379Z,3.80
2019-01-08T10:10:20.718Z,3.02
2019-01-08T10:12:47.073Z,3.33
2019-01-08T10:15:13.329Z,4.22
2019-01-08T10:17:39.709Z,3.12
2019-01-08T10:20:07.071Z,3.40
2019-01-08T10:22:33.330Z,2.83
2019-01-08T10:24:59.622Z,4.62
2019-01-08T10:27:25.885Z,4.30
2019-01-08T10:29:52.244Z,4.17
2019-01-08T10:32:18.535Z,3.35
2019-01-08T10:34:44.805Z,7.67
2019-01-08T10:37:11.057Z,10.43
2019-01-08T10:39:37.339Z,8.43
2019-01-08T10:42:03.590Z,4.85
2019-01-08T10:44:29.989Z,3.95
2019-01-08T10:46:56.361Z,4.17
2019-01-08T10:49:22.651Z,4.62
2019-01-08T10:51:48.940Z,4.45
2019-01-08T10:54:15.241Z,4.20
2019-01-08T10:56:41.642Z,3.90
2019-01-08T10:59:08.039Z,4.28
2019-01-08T11:01:40.480Z,5.35
2019-01-08T11:04:02.440Z,3.50
2019-01-08T11:06:28.791Z,3.17
2019-01-08T11:08:55.077Z,4.28
2019-01-08T11:11:21.325Z,3.98
2019-01-08T11:13:47.645Z,3.27
2019-01-08T11:16:13.935Z,2.45
2019-01-08T11:18:40.188Z,2.67
2019-01-08T11:21:06.585Z,2.45
2019-01-08T11:23:32.848Z,2.02
2019-01-08T11:25:59.228Z,2.47
2019-01-08T11:28:25.502Z,2.47
2019-01-08T11:30:51.753Z,1.90
2019-01-08T11:33:18.058Z,4.20
2019-01-08T11:35:44.454Z,2.30
2019-01-08T11:38:10.747Z,1.90
2019-01-08T11:40:37.040Z,2.27
2019-01-08T11:43:03.419Z,2.20
2019-01-08T11:45:29.685Z,2.72
2019-01-08T11:48:03.572Z,2.80
2019-01-08T11:50:24.237Z,3.05
2019-01-08T11:52:50.634Z,2.77
2019-01-08T11:55:17.137Z,2.92
2019-01-08T11:57:43.413Z,7.70
2019-01-08T12:00:10.697Z,3.10
2019-01-08T12:02:37.198Z,3.37
2019-01-08T12:05:03.865Z,3.42
2019-01-08T12:07:31.240Z,4.05
2019-01-08T12:09:57.718Z,4.30
2019-01-08T12:12:24.099Z,6.42
2019-01-08T12:14:50.329Z,4.10
2019-01-08T12:17:16.603Z,2.98
2019-01-08T12:19:42.917Z,3.22
2019-01-08T12:22:09.195Z,3.65
2019-01-08T12:24:35.554Z,5.62
2019-01-08T12:27:02.038Z,3.75
2019-01-08T12:29:28.299Z,3.55
2019-01-08T12:31:55.772Z,3.90
2019-01-08T12:34:22.247Z,4.15
2019-01-08T12:36:48.608Z,4.22
2019-01-08T12:39:14.891Z,3.98
2019-01-08T12:41:41.240Z,4.40
2019-01-08T12:44:07.534Z,4.25
2019-01-08T12:46:33.784Z,4.00
2019-01-08T12:49:00.037Z,4.08
2019-01-08T12:51:26.343Z,3.72
2019-01-08T12:53:52.613Z,4.25
2019-01-08T12:56:18.920Z,7.25
2019-01-08T12:58:45.215Z,3.98
2019-01-08T13:01:11.460Z,4.17
2019-01-08T13:03:37.768Z,6.20
2019-01-08T13:06:04.125Z,4.67
2019-01-08T13:08:30.484Z,4.12
2019-01-08T13:10:56.769Z,4.28
2019-01-08T13:13:23.036Z,4.55
2019-01-08T13:15:49.323Z,4.00
2019-01-08T13:18:15.662Z,3.70
2019-01-08T13:20:42.027Z,6.22
2019-01-08T13:23:08.307Z,3.20
2019-01-08T13:25:34.694Z,3.95
2019-01-08T13:28:00.970Z,2.72
2019-01-08T13:30:27.413Z,3.58
2019-01-08T13:32:53.688Z,5.15
2019-01-08T13:35:19.948Z,2.65
2019-01-08T13:37:46.421Z,4.17
2019-01-08T13:40:12.725Z,3.50
2019-01-08T13:42:39.156Z,3.42
2019-01-08T13:45:06.529Z,2.90
2019-01-08T13:47:32.976Z,4.45
2019-01-08T13:49:59.312Z,2.98
2019-01-08T13:52:25.624Z,2.98
2019-01-08T13:54:51.899Z,3.33
2019-01-08T13:57:18.185Z,3.33
2019-01-08T13:59:44.454Z,2.92
2019-01-08T14:02:10.747Z,4.00
2019-01-08T14:04:37.110Z,3.27
2019-01-08T14:07:03.524Z,2.60
2019-01-08T14:09:29.825Z,3.45
2019-01-08T14:11:56.125Z,3.47
2019-01-08T14:14:22.402Z,4.83
2019-01-08T14:16:48.717Z,3.35
2019-01-08T14:19:15.077Z,2.35
2019-01-08T14:21:41.576Z,3.70
2019-01-08T14:24:07.855Z,2.10
2019-01-08T14:26:34.156Z,2.65
2019-01-08T14:29:00.561Z,3.40
2019-01-08T14:31:26.845Z,2.60
2019-01-08T14:33:53.236Z,3.60
2019-01-08T14:36:19.571Z,4.47
2019-01-08T14:38:45.927Z,3.75
2019-01-08T14:41:12.175Z,3.75
2019-01-08T14:43:38.484Z,2.87
2019-01-08T14:46:04.937Z,2.77
2019-01-08T14:48:31.285Z,2.50
2019-01-08T14:50:57.651Z,2.62
2019-01-08T14:53:23.990Z,2.75
2019-01-08T14:55:50.349Z,3.02
2019-01-08T14:58:16.724Z,2.70
2019-01-08T15:00:42.994Z,2.47
2019-01-08T15:03:09.513Z,4.28
2019-01-08T15:05:55.681Z,2.40
2019-01-08T15:08:21.961Z,3.15
2019-01-08T15:10:48.295Z,2.52
2019-01-08T15:13:14.580Z,2.40
2019-01-08T15:15:40.824Z,3.60
2019-01-08T15:18:07.505Z,4.60
2019-01-08T15:20:33.931Z,4.70
2019-01-08T15:23:00.209Z,3.70
2019-01-08T15:25:26.558Z,3.72
2019-01-08T15:27:52.955Z,3.72
2019-01-08T15:30:19.217Z,13.15
2019-01-08T15:32:45.476Z,3.80
2019-01-08T15:35:12.002Z,3.60
2019-01-08T15:37:38.269Z,3.50
2019-01-08T15:40:04.823Z,3.30
2019-01-08T15:42:31.224Z,5.45
2019-01-08T15:44:57.524Z,3.33
2019-01-08T15:47:23.937Z,3.27
2019-01-08T15:49:50.345Z,3.15
2019-01-08T15:52:16.725Z,3.10
2019-01-08T15:54:43.144Z,5.15
2019-01-08T15:57:09.409Z,5.03
2019-01-08T15:59:35.897Z,2.95
2019-01-08T16:02:02.408Z,3.70
2019-01-08T16:04:28.776Z,6.30
2019-01-08T16:06:55.133Z,3.92
2019-01-08T16:09:21.619Z,3.72
2019-01-08T16:11:47.889Z,2.75
2019-01-08T16:14:15.087Z,2.45
2019-01-08T16:16:41.489Z,5.62
2019-01-08T16:19:07.765Z,3.45
2019-01-08T16:21:34.248Z,4.28
2019-01-08T16:24:00.665Z,16.25
2019-01-08T16:26:27.119Z,4.67
2019-01-08T16:28:53.534Z,17.92
2019-01-08T16:31:19.816Z,7.05
2019-01-08T16:33:46.262Z,7.50
2019-01-08T16:36:12.560Z,3.75
2019-01-08T16:38:38.919Z,4.37
2019-01-08T16:41:05.323Z,3.80
2019-01-08T16:43:31.791Z,4.17
2019-01-08T16:45:58.256Z,4.65
2019-01-08T16:48:24.540Z,3.22
2019-01-08T16:50:50.929Z,4.47
2019-01-08T16:53:17.427Z,3.98
2019-01-08T16:55:43.751Z,3.37
2019-01-08T16:58:10.001Z,3.30
2019-01-08T17:00:36.417Z,3.55
2019-01-08T17:03:02.763Z,3.40
2019-01-08T17:05:29.144Z,3.90
2019-01-08T17:07:55.563Z,2.98
2019-01-08T17:10:21.848Z,6.28
2019-01-08T17:12:48.213Z,3.50
2019-01-08T17:15:14.735Z,3.55
2019-01-08T17:17:40.991Z,3.30
2019-01-08T17:20:07.366Z,3.77
2019-01-08T17:22:33.704Z,3.40
2019-01-08T17:25:00.150Z,3.08
2019-01-08T17:27:26.574Z,2.85
2019-01-08T17:29:52.879Z,3.05
2019-01-08T17:32:19.265Z,3.15
2019-01-08T17:34:45.641Z,3.25
2019-01-08T17:37:12.149Z,3.65
2019-01-08T17:39:39.541Z,3.12
2019-01-08T17:42:05.889Z,3.37
2019-01-08T17:44:32.369Z,3.15
2019-01-08T17:46:58.759Z,2.58
2019-01-08T17:49:25.139Z,2.72
2019-01-08T17:51:51.504Z,3.22
2019-01-08T17:54:17.870Z,3.50
2019-01-08T17:56:44.261Z,3.02
2019-01-08T17:59:10.720Z,2.77
2019-01-08T18:01:39.386Z,2.98
2019-01-08T18:04:05.697Z,3.35
2019-01-08T18:06:32.107Z,3.50
2019-01-08T18:08:58.469Z,4.33
2019-01-08T18:11:24.739Z,4.60
2019-01-08T18:13:51.146Z,4.83
2019-01-08T18:16:17.422Z,4.15
2019-01-08T18:18:43.675Z,3.10
2019-01-08T18:21:10.173Z,3.52
2019-01-08T18:23:36.619Z,3.12
2019-01-08T18:26:03.081Z,3.37
2019-01-08T18:28:29.471Z,3.40
2019-01-08T18:30:56.061Z,3.42
2019-01-08T18:33:22.641Z,4.47
2019-01-08T18:35:48.906Z,5.25
2019-01-08T18:38:15.188Z,3.47
2019-01-08T18:40:41.689Z,4.05
2019-01-08T18:43:14.008Z,7.72
2019-01-08T18:45:36.164Z,3.87
2019-01-08T18:48:02.558Z,3.45
2019-01-08T18:50:28.895Z,3.33
2019-01-08T18:52:55.361Z,2.80
2019-01-08T18:55:21.750Z,4.50
2019-01-08T18:57:48.148Z,5.75
2019-01-08T19:00:14.442Z,3.58
2019-01-08T19:02:40.842Z,3.00
2019-01-08T19:05:07.238Z,2.92
2019-01-08T19:07:33.512Z,2.95
2019-01-08T19:10:06.928Z,3.22
2019-01-08T19:12:33.403Z,3.15
2019-01-08T19:14:59.663Z,2.60
2019-01-08T19:17:26.084Z,2.35
2019-01-08T19:19:52.648Z,2.85
2019-01-08T19:22:19.116Z,2.77
2019-01-08T19:24:45.539Z,2.60
2019-01-08T19:27:11.911Z,1.80
2019-01-08T19:29:38.243Z,2.10
2019-01-08T19:32:04.645Z,2.17
2019-01-08T19:34:31.041Z,2.47
2019-01-08T19:36:57.547Z,2.45
2019-01-08T19:39:23.962Z,2.60
2019-01-08T19:41:50.463Z,3.47
2019-01-08T19:44:36.661Z,2.30
2019-01-08T19:47:03.572Z,2.72
2019-01-08T19:49:30.030Z,3.90
2019-01-08T19:51:56.526Z,6.20
2019-01-08T19:54:23.101Z,2.80
2019-01-08T19:56:50.492Z,3.10
2019-01-08T19:59:17.048Z,4.25
2019-01-08T20:01:43.484Z,3.55
2019-01-08T20:04:17.652Z,3.20
2019-01-08T20:06:38.292Z,3.40
2019-01-08T20:09:05.558Z,4.17
2019-01-08T20:11:31.957Z,3.67
2019-01-08T20:13:58.360Z,3.42
2019-01-08T20:16:25.969Z,3.58
2019-01-08T20:18:52.248Z,3.47
2019-01-08T20:21:18.515Z,3.95
2019-01-08T20:23:44.859Z,4.67
2019-01-08T20:26:11.153Z,4.47
2019-01-08T20:28:37.407Z,4.28
2019-01-08T20:31:03.701Z,6.30
2019-01-08T20:33:29.986Z,3.75
2019-01-08T20:35:56.249Z,4.17
2019-01-08T20:38:22.545Z,3.55
2019-01-08T20:40:48.826Z,3.58
2019-01-08T20:43:15.081Z,3.70
2019-01-08T20:45:41.573Z,4.03
2019-01-08T20:48:07.864Z,4.10
2019-01-08T20:50:34.128Z,4.08
2019-01-08T20:53:00.433Z,4.17
2019-01-08T20:55:26.869Z,3.92
2019-01-08T20:57:53.362Z,3.35
2019-01-08T21:00:19.653Z,3.17
2019-01-08T21:02:45.952Z,4.20
2019-01-08T21:05:12.238Z,3.52
2019-01-08T21:07:38.590Z,3.58
2019-01-08T21:10:06.464Z,3.33
2019-01-08T21:12:32.837Z,5.62
2019-01-08T21:14:59.220Z,3.70
2019-01-08T21:17:25.485Z,3.75
2019-01-08T21:19:51.899Z,2.60
2019-01-08T21:22:18.207Z,2.25
2019-01-08T21:24:44.579Z,3.17
2019-01-08T21:27:10.870Z,2.20
2019-01-08T21:29:37.126Z,2.42
2019-01-08T21:32:03.382Z,2.08
2019-01-08T21:34:29.779Z,2.05
2019-01-08T21:36:56.047Z,1.65
2019-01-08T21:39:22.337Z,2.47
2019-01-08T21:41:48.696Z,2.05
2019-01-08T21:44:14.970Z,1.70
2019-01-08T21:46:41.264Z,2.05
2019-01-08T21:49:07.536Z,1.67
2019-01-08T21:51:33.833Z,1.60
2019-01-08T21:54:00.466Z,2.35
2019-01-08T21:56:26.729Z,1.62
2019-01-08T21:58:52.996Z,3.65
2019-01-08T22:01:19.382Z,1.65
2019-01-08T22:03:45.771Z,1.22
2019-01-08T22:06:12.216Z,3.42
2019-01-08T22:08:38.717Z,1.32
2019-01-08T22:11:04.985Z,1.55
2019-01-08T22:13:31.240Z,1.62
2019-01-08T22:15:57.741Z,2.25
2019-01-08T22:18:24.116Z,2.00
2019-01-08T22:20:50.409Z,1.95
2019-01-08T22:23:16.711Z,2.25
2019-01-08T22:25:42.964Z,2.42
2019-01-08T22:28:09.266Z,2.27
2019-01-08T22:30:35.627Z,2.10
2019-01-08T22:33:01.883Z,2.20
2019-01-08T22:35:28.283Z,2.10
2019-01-08T22:37:54.636Z,3.60
2019-01-08T22:40:20.891Z,1.95
2019-01-08T22:42:47.177Z,2.67
2019-01-08T22:45:13.928Z,1.60
2019-01-08T22:47:40.206Z,2.02
2019-01-08T22:50:07.319Z,5.25
2019-01-08T22:52:34.940Z,1.72
2019-01-08T22:55:01.672Z,2.20
2019-01-08T22:57:28.121Z,3.75
2019-01-08T22:59:54.414Z,2.47
2019-01-08T23:02:20.665Z,2.00
2019-01-08T23:04:46.920Z,1.85
2019-01-08T23:07:13.223Z,2.62
2019-01-08T23:09:39.589Z,2.40
2019-01-08T23:12:05.948Z,2.98
2019-01-08T23:14:32.337Z,4.15
2019-01-08T23:16:58.598Z,4.97
2019-01-08T23:19:25.095Z,3.10
2019-01-08T23:21:51.370Z,6.15
2019-01-08T23:24:17.716Z,2.60
2019-01-08T23:26:44.107Z,2.87
2019-01-08T23:29:10.380Z,2.67
2019-01-08T23:31:36.641Z,2.67
2019-01-08T23:34:03.126Z,3.00
2019-01-08T23:36:29.601Z,4.75
2019-01-08T23:38:56.117Z,2.20
2019-01-08T23:41:22.387Z,3.58
2019-01-08T23:43:48.836Z,2.22
2019-01-08T23:46:34.985Z,4.10
2019-01-08T23:49:01.344Z,2.12
2019-01-08T23:51:27.803Z,2.55
2019-01-08T23:53:55.599Z,2.47
2019-01-08T23:56:23.816Z,3.27
2019-01-08T23:58:50.273Z,7.12
